Terminal Aerodrome Forecast
Issued by NWS Omaha/Valley, NE

Home | Current Version | Previous Version | Graphics & Text | Print | Product List | Glossary On
Versions: 1 2 3 4 5 6 7 8 9 10 11 12 13 14 15 16 17 18 19 20
000
FTUS43 KOAX 262327
TAFOFK
TAF
KOFK 262327Z 2700/2724 35015G23KT P6SM SKC
     FM270100 35011KT P6SM SKC
     FM270400 27005KT P6SM SCT250
     FM271400 28011KT P6SM SKC
     FM271700 31016G25KT P6SM SCT050=

USA.gov is the U.S. government's official web portal to all federal, state and local government web resources and services.